createdAt,value
2023-01-29T00:01:01.782Z,0.59
2023-01-29T00:06:03.687Z,0.78
2023-01-29T00:11:04.930Z,0.62
2023-01-29T00:16:06.300Z,0.54
2023-01-29T00:21:07.570Z,0.18
2023-01-29T00:26:08.839Z,0.14
2023-01-29T00:31:10.238Z,0.74
2023-01-29T00:36:11.557Z,0.65
2023-01-29T00:41:31.667Z,1.09
2023-01-29T00:46:32.913Z,0.81
2023-01-29T00:51:34.220Z,0.23
2023-01-29T00:56:35.446Z,0.37
2023-01-29T01:01:55.586Z,0.80
2023-01-29T01:06:56.876Z,0.81
2023-01-29T01:11:58.192Z,0.99
2023-01-29T01:16:59.605Z,0.91
2023-01-29T01:22:00.842Z,0.53
2023-01-29T01:27:02.049Z,1.13
2023-01-29T01:32:03.360Z,0.78
2023-01-29T01:37:05.374Z,0.45
2023-01-29T01:42:06.585Z,0.63
2023-01-29T01:47:07.793Z,0.81
2023-01-29T01:52:08.992Z,0.91
2023-01-29T01:57:16.135Z,1.09
2023-01-29T02:02:36.184Z,1.25
2023-01-29T02:07:55.953Z,0.85
2023-01-29T02:12:57.154Z,1.07
2023-01-29T02:17:58.350Z,0.75
2023-01-29T02:23:02.646Z,1.07
2023-01-29T02:28:04.879Z,0.61
2023-01-29T02:33:09.296Z,0.66
2023-01-29T02:38:10.636Z,1.00
2023-01-29T02:43:11.909Z,1.10
2023-01-29T02:48:13.177Z,0.91
2023-01-29T02:53:14.422Z,1.14
2023-01-29T02:58:15.643Z,1.11
2023-01-29T03:03:16.876Z,1.05
2023-01-29T03:08:18.078Z,1.06
2023-01-29T03:13:19.485Z,1.47
2023-01-29T03:18:20.751Z,1.19
2023-01-29T03:23:40.943Z,1.07
2023-01-29T03:29:00.986Z,1.15
2023-01-29T03:34:03.879Z,1.49
2023-01-29T03:39:05.344Z,1.56
2023-01-29T03:44:06.594Z,1.08
2023-01-29T03:49:08.379Z,1.06
2023-01-29T03:54:09.853Z,1.15
2023-01-29T03:59:11.974Z,1.22
2023-01-29T04:04:13.282Z,1.46
2023-01-29T04:09:14.557Z,0.93
2023-01-29T04:14:15.802Z,1.02
2023-01-29T04:19:17.095Z,1.24
2023-01-29T04:24:18.390Z,0.32
2023-01-29T04:29:19.667Z,-0.02
2023-01-29T04:34:20.924Z,-0.21
2023-01-29T04:39:22.323Z,-0.44
2023-01-29T04:44:23.867Z,-0.50
2023-01-29T04:49:25.140Z,-0.22
2023-01-29T04:54:26.445Z,-0.46
2023-01-29T04:59:27.698Z,-0.41
2023-01-29T05:04:28.944Z,-0.49
2023-01-29T05:09:30.162Z,-0.55
2023-01-29T05:14:31.367Z,-0.49
2023-01-29T05:19:32.591Z,-0.38
2023-01-29T05:24:33.834Z,-0.07
2023-01-29T05:29:35.114Z,0.01
2023-01-29T05:34:36.355Z,-0.36
2023-01-29T05:39:37.571Z,-0.39
2023-01-29T05:44:38.804Z,-0.42
2023-01-29T05:49:40.045Z,-0.75
2023-01-29T05:54:41.363Z,-0.93
2023-01-29T05:59:42.578Z,-0.74
2023-01-29T06:04:43.838Z,-0.99
2023-01-29T06:09:45.104Z,-0.63
2023-01-29T06:14:46.389Z,-0.49
2023-01-29T06:19:47.614Z,-0.67
2023-01-29T06:24:48.912Z,-0.71
2023-01-29T06:29:50.333Z,-0.47
2023-01-29T06:34:53.135Z,-0.56
2023-01-29T06:39:54.381Z,-0.75
2023-01-29T06:44:55.693Z,-0.75
2023-01-29T06:49:56.947Z,-0.45
2023-01-29T06:54:58.167Z,-0.58
2023-01-29T06:59:59.642Z,-0.94
2023-01-29T07:05:00.903Z,-1.00
2023-01-29T07:10:02.154Z,-1.04
2023-01-29T07:15:03.899Z,-0.68
2023-01-29T07:20:05.984Z,-0.80
2023-01-29T07:25:07.247Z,-0.59
2023-01-29T07:30:08.479Z,-0.03
2023-01-29T07:35:09.739Z,0.93
2023-01-29T07:40:11.363Z,1.24
2023-01-29T07:45:12.630Z,0.48
2023-01-29T07:50:14.041Z,-0.31
2023-01-29T07:55:15.365Z,-0.57
2023-01-29T08:00:16.871Z,-0.78
2023-01-29T08:05:18.271Z,-0.77
2023-01-29T08:10:19.756Z,-0.98
2023-01-29T08:15:21.222Z,-0.63
2023-01-29T08:20:22.432Z,-0.72
2023-01-29T08:25:23.946Z,-0.91
2023-01-29T08:30:25.375Z,-0.98
2023-01-29T08:35:26.680Z,-0.73
2023-01-29T08:40:28.093Z,-0.67
2023-01-29T08:45:30.084Z,-0.19
2023-01-29T08:50:32.443Z,-0.32
2023-01-29T08:55:33.763Z,-0.63
2023-01-29T09:00:34.976Z,-0.81
2023-01-29T09:05:36.205Z,-0.94
2023-01-29T09:10:37.537Z,-0.85
2023-01-29T09:15:38.771Z,-0.76
2023-01-29T09:20:40.092Z,-1.08
2023-01-29T09:25:41.344Z,-0.87
2023-01-29T09:30:42.702Z,-0.90
2023-01-29T09:35:44.232Z,-0.68
2023-01-29T09:40:45.483Z,-0.87
2023-01-29T09:45:46.797Z,-0.44
2023-01-29T09:50:48.124Z,-0.85
2023-01-29T09:55:49.741Z,-1.15
2023-01-29T10:00:50.975Z,-0.49
2023-01-29T10:05:52.212Z,-0.72
2023-01-29T10:10:53.450Z,-0.82
2023-01-29T10:15:54.725Z,0.15
2023-01-29T10:20:55.999Z,0.13
2023-01-29T10:25:57.298Z,0.33
2023-01-29T10:30:58.735Z,0.08
2023-01-29T10:35:59.996Z,-0.33
2023-01-29T10:41:01.189Z,-0.49
2023-01-29T10:46:02.412Z,0.02
2023-01-29T10:51:03.706Z,0.51
2023-01-29T10:56:14.163Z,0.64
2023-01-29T11:01:22.431Z,0.33
2023-01-29T11:06:24.024Z,0.59
2023-01-29T11:11:25.308Z,1.12
2023-01-29T11:16:26.607Z,1.60
2023-01-29T11:21:27.884Z,1.58
2023-01-29T11:26:29.169Z,0.96
2023-01-29T11:31:30.549Z,0.31
2023-01-29T11:36:35.020Z,0.15
2023-01-29T11:41:36.389Z,0.97
2023-01-29T11:46:37.804Z,0.53
2023-01-29T11:51:39.139Z,-0.03
2023-01-29T11:56:40.463Z,0.37
2023-01-29T12:01:42.288Z,0.35
2023-01-29T12:06:43.578Z,0.74
2023-01-29T12:11:45.039Z,0.21
2023-01-29T12:16:46.310Z,0.83
2023-01-29T12:21:47.986Z,0.75
2023-01-29T12:26:49.201Z,0.95
2023-01-29T12:31:50.508Z,1.15
2023-01-29T12:36:54.847Z,0.69
2023-01-29T12:41:56.103Z,1.10
2023-01-29T12:46:57.429Z,1.11
2023-01-29T12:51:59.191Z,0.77
2023-01-29T12:57:00.502Z,0.73
2023-01-29T13:02:01.722Z,0.61
2023-01-29T13:07:02.987Z,0.49
2023-01-29T13:12:04.270Z,0.91
2023-01-29T13:17:05.603Z,1.41
2023-01-29T13:22:06.934Z,1.41
2023-01-29T13:27:08.303Z,1.36
2023-01-29T13:32:10.399Z,0.67
2023-01-29T13:37:11.688Z,0.90
2023-01-29T13:42:13.024Z,1.03
2023-01-29T13:47:14.294Z,1.42
2023-01-29T13:52:15.591Z,1.76
2023-01-29T13:57:17.041Z,1.45
2023-01-29T14:02:18.376Z,0.92
2023-01-29T14:07:19.652Z,0.97
2023-01-29T14:12:20.902Z,0.98
2023-01-29T14:17:22.947Z,1.13
2023-01-29T14:22:24.263Z,1.10
2023-01-29T14:27:25.760Z,1.35
2023-01-29T14:32:27.034Z,0.86
2023-01-29T14:37:28.282Z,1.18
2023-01-29T14:42:29.500Z,0.91
2023-01-29T14:47:30.706Z,1.81
2023-01-29T14:52:31.911Z,1.04
2023-01-29T14:57:33.221Z,1.12
2023-01-29T15:02:37.205Z,0.86
2023-01-29T15:07:38.578Z,1.02
2023-01-29T15:12:39.992Z,0.89
2023-01-29T15:17:41.273Z,0.56
2023-01-29T15:22:42.519Z,0.73
2023-01-29T15:27:43.888Z,0.55
2023-01-29T15:32:45.188Z,0.45
2023-01-29T15:37:46.446Z,0.21
2023-01-29T15:42:48.534Z,0.26
2023-01-29T15:47:49.852Z,0.57
2023-01-29T15:52:51.091Z,0.76
2023-01-29T15:57:52.412Z,1.13
2023-01-29T16:02:53.734Z,0.77
2023-01-29T16:07:55.487Z,0.84
2023-01-29T16:12:56.837Z,1.08
2023-01-29T16:17:58.119Z,1.12
2023-01-29T16:22:59.551Z,1.08
2023-01-29T16:28:01.088Z,0.83
2023-01-29T16:33:02.339Z,0.60
2023-01-29T16:38:03.724Z,0.63
2023-01-29T16:43:04.952Z,0.80
2023-01-29T16:48:06.257Z,1.11
2023-01-29T16:53:07.497Z,1.10
2023-01-29T16:58:08.751Z,1.19
2023-01-29T17:03:10.028Z,0.95
2023-01-29T17:08:11.264Z,1.01
2023-01-29T17:13:12.496Z,0.59
2023-01-29T17:18:13.736Z,0.59
2023-01-29T17:23:15.082Z,1.05
2023-01-29T17:28:16.451Z,0.88
2023-01-29T17:33:17.862Z,1.08
2023-01-29T17:38:25.882Z,0.57
2023-01-29T17:43:27.498Z,1.29
2023-01-29T17:48:28.805Z,1.30
2023-01-29T17:53:43.447Z,1.60
2023-01-29T17:58:45.821Z,1.66
2023-01-29T18:03:47.069Z,1.47
2023-01-29T18:08:48.348Z,1.43
2023-01-29T18:13:49.597Z,1.57
2023-01-29T18:18:50.853Z,1.69
2023-01-29T18:23:52.136Z,1.72
2023-01-29T18:28:53.374Z,1.53
2023-01-29T18:33:54.642Z,1.50
2023-01-29T18:38:55.882Z,1.44
2023-01-29T18:43:57.094Z,1.38
2023-01-29T18:48:58.369Z,1.47
2023-01-29T18:53:59.687Z,1.58
2023-01-29T18:59:00.956Z,1.33
2023-01-29T19:04:02.256Z,1.42
2023-01-29T19:09:03.930Z,1.09
2023-01-29T19:14:05.160Z,1.05
2023-01-29T19:19:06.495Z,1.24
2023-01-29T19:24:10.074Z,1.18
2023-01-29T19:29:11.453Z,1.07
2023-01-29T19:34:12.694Z,1.00
2023-01-29T19:39:14.837Z,1.14
2023-01-29T19:44:16.085Z,0.96
2023-01-29T19:49:17.307Z,1.05
2023-01-29T19:54:19.779Z,1.21
2023-01-29T19:59:20.989Z,1.19
2023-01-29T20:04:22.340Z,1.03
2023-01-29T20:09:23.557Z,1.12
2023-01-29T20:14:24.876Z,1.18
2023-01-29T20:19:26.092Z,1.30
2023-01-29T20:24:29.017Z,1.19
2023-01-29T20:29:30.343Z,1.23
2023-01-29T20:34:31.569Z,0.86
2023-01-29T20:39:32.857Z,0.97
2023-01-29T20:44:34.321Z,1.27
2023-01-29T20:49:35.625Z,1.07
2023-01-29T20:54:37.196Z,1.14
2023-01-29T20:59:38.563Z,1.14
2023-01-29T21:04:39.849Z,1.14
2023-01-29T21:09:41.073Z,0.96
2023-01-29T21:14:42.371Z,0.68
2023-01-29T21:19:44.115Z,0.80
2023-01-29T21:30:02.391Z,0.19
2023-01-29T21:35:03.630Z,-0.07
2023-01-29T21:40:04.869Z,-0.02
2023-01-29T21:45:06.090Z,0.03
2023-01-29T21:50:07.329Z,-0.05
2023-01-29T21:55:08.586Z,-0.25
2023-01-29T22:00:09.802Z,-0.11
2023-01-29T22:05:19.476Z,0.29
2023-01-29T22:10:21.621Z,-0.04
2023-01-29T22:15:23.976Z,0.22
2023-01-29T22:20:30.136Z,0.22
2023-01-29T22:25:32.232Z,0.51
2023-01-29T22:30:33.646Z,0.19
2023-01-29T22:35:35.040Z,0.26
2023-01-29T22:40:41.275Z,0.16
2023-01-29T22:45:42.513Z,0.35
2023-01-29T22:50:52.802Z,0.27
2023-01-29T22:55:54.442Z,0.29
2023-01-29T23:00:55.659Z,0.22
2023-01-29T23:05:56.883Z,0.32
2023-01-29T23:11:13.818Z,0.16
2023-01-29T23:16:15.665Z,0.06
2023-01-29T23:21:17.198Z,-0.24
2023-01-29T23:26:37.263Z,-0.20
2023-01-29T23:31:38.615Z,-0.27
2023-01-29T23:36:39.883Z,-0.39
2023-01-29T23:41:41.129Z,-0.32
2023-01-29T23:46:42.444Z,-0.56
2023-01-29T23:51:44.429Z,-0.31
2023-01-29T23:56:45.709Z,-0.50
